createdAt,value
2019-02-19T00:00:46.034Z,7.13
2019-02-19T00:02:03.181Z,7.43
2019-02-19T00:03:19.549Z,6.93
2019-02-19T00:04:35.740Z,6.93
2019-02-19T00:05:51.968Z,7.27
2019-02-19T00:07:07.792Z,7.20
2019-02-19T00:08:23.636Z,7.47
2019-02-19T00:09:39.624Z,7.40
2019-02-19T00:10:55.712Z,6.80
2019-02-19T00:12:12.283Z,7.07
2019-02-19T00:13:28.250Z,7.87
2019-02-19T00:14:44.405Z,6.50
2019-02-19T00:16:00.356Z,7.67
2019-02-19T00:17:16.048Z,7.60
2019-02-19T00:18:32.061Z,7.33
2019-02-19T00:19:48.000Z,7.47
2019-02-19T00:21:03.945Z,7.23
2019-02-19T00:22:20.201Z,7.10
2019-02-19T00:23:36.440Z,7.00
2019-02-19T00:24:52.748Z,7.20
2019-02-19T00:26:08.425Z,7.20
2019-02-19T00:27:24.519Z,7.40
2019-02-19T00:28:40.789Z,6.70
2019-02-19T00:29:56.389Z,7.03
2019-02-19T00:31:12.347Z,6.97
2019-02-19T00:32:28.194Z,6.87
2019-02-19T00:33:43.998Z,7.27
2019-02-19T00:35:00.416Z,7.40
2019-02-19T00:36:16.259Z,7.53
2019-02-19T00:37:32.512Z,6.70
2019-02-19T00:38:48.348Z,7.10
2019-02-19T00:40:04.489Z,7.47
2019-02-19T00:41:20.268Z,8.40
2019-02-19T00:42:36.146Z,7.97
2019-02-19T00:43:52.122Z,7.37
2019-02-19T00:45:16.313Z,6.67
2019-02-19T00:46:26.264Z,6.73
2019-02-19T00:47:42.150Z,7.83
2019-02-19T00:48:57.990Z,7.63
2019-02-19T00:50:13.957Z,7.13
2019-02-19T00:51:29.903Z,8.37
2019-02-19T00:52:46.388Z,7.97
2019-02-19T00:54:02.385Z,6.70
2019-02-19T00:55:18.379Z,7.60
2019-02-19T00:56:34.581Z,7.07
2019-02-19T00:57:50.820Z,7.20
2019-02-19T00:59:06.688Z,8.30
2019-02-19T01:00:22.884Z,7.60
2019-02-19T01:01:39.426Z,7.33
2019-02-19T01:02:55.106Z,7.23
2019-02-19T01:04:10.928Z,6.93
2019-02-19T01:05:26.925Z,7.20
2019-02-19T01:06:43.033Z,8.10
2019-02-19T01:07:59.375Z,7.63
2019-02-19T01:09:15.354Z,7.97
2019-02-19T01:10:31.587Z,7.80
2019-02-19T01:11:47.828Z,8.03
2019-02-19T01:13:03.812Z,8.10
2019-02-19T01:14:20.081Z,7.90
2019-02-19T01:15:35.926Z,7.77
2019-02-19T01:16:51.974Z,7.73
2019-02-19T01:18:08.029Z,7.27
2019-02-19T01:19:23.769Z,8.10
2019-02-19T01:20:39.633Z,6.80
2019-02-19T01:21:55.945Z,8.03
2019-02-19T01:23:11.795Z,7.77
2019-02-19T01:24:27.898Z,8.00
2019-02-19T01:25:44.183Z,7.27
2019-02-19T01:27:00.516Z,7.87
2019-02-19T01:28:16.770Z,7.47
2019-02-19T01:29:32.555Z,7.87
2019-02-19T01:30:48.634Z,7.67
2019-02-19T01:32:04.324Z,7.80
2019-02-19T01:33:20.174Z,7.87
2019-02-19T01:34:35.944Z,7.80
2019-02-19T01:35:51.751Z,8.07
2019-02-19T01:37:07.620Z,8.10
2019-02-19T01:38:23.614Z,7.43
2019-02-19T01:39:39.488Z,7.47
2019-02-19T01:40:55.547Z,7.90
2019-02-19T01:42:13.750Z,8.33
2019-02-19T01:43:29.633Z,7.60
2019-02-19T01:44:45.904Z,8.07
2019-02-19T01:46:01.785Z,7.93
2019-02-19T01:47:17.702Z,7.50
2019-02-19T01:48:33.775Z,7.83
2019-02-19T01:49:50.043Z,7.90
2019-02-19T01:51:06.435Z,8.27
2019-02-19T01:52:22.350Z,7.63
2019-02-19T01:53:38.232Z,7.97
2019-02-19T01:54:54.147Z,8.17
2019-02-19T01:56:10.189Z,7.47
2019-02-19T01:57:26.381Z,7.50
2019-02-19T01:58:42.423Z,7.27
2019-02-19T01:59:58.640Z,8.37
2019-02-19T02:01:14.843Z,8.73
2019-02-19T02:02:30.944Z,8.33
2019-02-19T02:03:47.092Z,8.00
2019-02-19T02:05:03.213Z,8.07
2019-02-19T02:06:19.182Z,8.30
2019-02-19T02:07:35.368Z,8.27
2019-02-19T02:08:51.443Z,9.23
2019-02-19T02:10:07.648Z,8.40
2019-02-19T02:11:23.380Z,7.60
2019-02-19T02:12:39.545Z,8.20
2019-02-19T02:13:55.677Z,8.23
2019-02-19T02:15:12.244Z,8.20
2019-02-19T02:16:47.360Z,8.70
2019-02-19T02:18:03.434Z,8.60
2019-02-19T02:19:19.553Z,8.83
2019-02-19T02:20:35.432Z,8.43
2019-02-19T02:21:39.777Z,8.70
2019-02-19T02:24:45.655Z,7.33
2019-02-19T02:26:09.049Z,9.43
2019-02-19T02:29:14.893Z,8.97
2019-02-19T02:32:07.696Z,8.73
2019-02-19T02:33:31.385Z,9.47
2019-02-19T02:34:55.107Z,9.73
2019-02-19T02:36:18.904Z,10.30
2019-02-19T02:37:42.532Z,10.00
2019-02-19T02:39:06.293Z,10.13
2019-02-19T02:41:58.851Z,9.80
2019-02-19T02:43:22.240Z,10.47
2019-02-19T02:46:28.092Z,10.73
2019-02-19T02:49:34.670Z,12.07
2019-02-19T02:50:58.134Z,11.83
2019-02-19T02:52:21.554Z,12.27
2019-02-19T02:55:27.809Z,12.80
2019-02-19T02:56:32.526Z,12.97
2019-02-19T02:57:55.964Z,13.10
2019-02-19T02:59:19.346Z,12.90
2019-02-19T03:00:42.803Z,13.90
2019-02-19T03:03:50.348Z,13.47
2019-02-19T03:07:02.894Z,13.30
2019-02-19T03:08:26.287Z,14.07
2019-02-19T03:11:32.152Z,13.73
2019-02-19T03:14:38.074Z,14.03
2019-02-19T03:18:41.745Z,14.60
2019-02-19T03:19:58.194Z,14.97
2019-02-19T03:21:14.300Z,16.93
2019-02-19T03:22:30.555Z,14.90
2019-02-19T03:23:46.462Z,16.33
2019-02-19T03:25:02.450Z,15.57
2019-02-19T03:26:18.512Z,15.43
2019-02-19T03:27:34.844Z,16.07
2019-02-19T03:28:50.475Z,15.80
2019-02-19T03:29:54.780Z,16.53
2019-02-19T03:31:18.309Z,16.03
2019-02-19T03:34:10.798Z,17.13
2019-02-19T03:37:18.469Z,16.20
2019-02-19T03:40:24.331Z,16.60
2019-02-19T03:44:58.862Z,16.97
2019-02-19T03:48:04.724Z,15.87
2019-02-19T03:52:53.092Z,16.17
2019-02-19T03:54:35.478Z,17.00
2019-02-19T03:57:41.373Z,15.60
2019-02-19T03:59:04.775Z,16.50
2019-02-19T04:00:28.167Z,17.27
2019-02-19T04:01:51.717Z,16.73
2019-02-19T04:04:43.758Z,18.07
2019-02-19T04:15:28.338Z,17.03
2019-02-19T04:19:55.674Z,16.47
2019-02-19T04:21:11.880Z,16.10
2019-02-19T04:22:28.022Z,17.33
2019-02-19T04:23:44.108Z,16.70
2019-02-19T04:25:00.238Z,16.77
2019-02-19T04:26:16.485Z,16.70
2019-02-19T04:27:32.549Z,17.00
2019-02-19T04:28:48.669Z,17.00
2019-02-19T04:30:04.935Z,16.33
2019-02-19T04:31:21.260Z,16.60
2019-02-19T04:32:37.280Z,16.87
2019-02-19T04:33:53.522Z,15.87
2019-02-19T04:35:09.517Z,16.57
2019-02-19T04:36:25.325Z,17.63
2019-02-19T04:37:41.406Z,16.73
2019-02-19T04:38:57.358Z,16.33
2019-02-19T04:40:13.404Z,16.57
2019-02-19T04:41:29.504Z,16.50
2019-02-19T04:42:45.695Z,15.27
2019-02-19T04:44:01.599Z,16.30
2019-02-19T04:45:17.521Z,17.17
2019-02-19T04:46:33.728Z,15.77
2019-02-19T04:47:49.928Z,16.30
2019-02-19T04:49:06.241Z,16.57
2019-02-19T04:50:22.255Z,16.00
2019-02-19T04:51:38.189Z,16.27
2019-02-19T04:52:54.023Z,15.53
2019-02-19T04:54:10.617Z,15.63
2019-02-19T04:55:27.085Z,16.23
2019-02-19T04:56:43.182Z,15.63
2019-02-19T04:57:58.948Z,16.03
2019-02-19T04:59:15.250Z,15.37
2019-02-19T05:00:31.565Z,14.87
2019-02-19T05:01:47.992Z,16.73
2019-02-19T05:03:03.921Z,16.23
2019-02-19T05:04:20.346Z,15.33
2019-02-19T05:05:36.579Z,15.60
2019-02-19T05:06:52.816Z,16.03
2019-02-19T05:08:08.860Z,15.73
2019-02-19T05:09:25.086Z,14.50
2019-02-19T05:10:40.811Z,14.70
2019-02-19T05:11:56.835Z,14.33
2019-02-19T05:13:12.817Z,15.03
2019-02-19T05:14:29.076Z,15.97
2019-02-19T05:15:44.864Z,14.77
2019-02-19T05:17:00.695Z,15.47
2019-02-19T05:18:16.680Z,14.97
2019-02-19T05:19:32.649Z,15.27
2019-02-19T05:20:48.762Z,14.13
2019-02-19T05:22:04.681Z,15.13
2019-02-19T05:23:20.483Z,14.83
2019-02-19T05:24:36.361Z,16.20
2019-02-19T05:25:52.471Z,14.93
2019-02-19T05:27:08.777Z,14.43
2019-02-19T05:28:24.538Z,14.93
2019-02-19T05:29:40.661Z,14.87
2019-02-19T05:30:56.813Z,14.73
2019-02-19T05:32:12.943Z,14.30
2019-02-19T05:33:28.780Z,14.53
2019-02-19T05:34:45.056Z,15.33
2019-02-19T05:36:00.763Z,14.30
2019-02-19T05:37:16.777Z,15.43
2019-02-19T05:38:32.809Z,15.17
2019-02-19T05:39:49.340Z,15.03
2019-02-19T05:41:05.523Z,15.40
2019-02-19T05:42:22.049Z,15.43
2019-02-19T05:43:38.549Z,15.47
2019-02-19T05:44:55.147Z,15.10
2019-02-19T05:46:11.473Z,15.93
2019-02-19T05:47:27.078Z,15.10
2019-02-19T05:48:43.276Z,15.57
2019-02-19T05:49:59.518Z,16.03
2019-02-19T05:51:15.490Z,17.10
2019-02-19T05:52:31.427Z,15.07
2019-02-19T05:53:47.450Z,14.30
2019-02-19T05:55:03.514Z,14.40
2019-02-19T05:56:20.493Z,14.03
2019-02-19T05:57:36.821Z,15.27
2019-02-19T05:58:52.627Z,15.80
2019-02-19T06:00:09.146Z,14.20
2019-02-19T06:01:23.776Z,15.00
2019-02-19T06:02:47.268Z,15.33
2019-02-19T06:04:10.756Z,15.17
2019-02-19T06:05:34.285Z,15.17
2019-02-19T06:06:57.917Z,14.77
2019-02-19T06:08:21.478Z,14.97
2019-02-19T06:09:44.945Z,14.47
2019-02-19T06:11:08.356Z,14.20
2019-02-19T06:12:32.329Z,14.73
2019-02-19T06:13:55.962Z,15.07
2019-02-19T06:15:19.434Z,14.37
2019-02-19T06:16:42.934Z,15.10
2019-02-19T06:18:06.861Z,14.20
2019-02-19T06:19:30.355Z,14.77
2019-02-19T06:20:54.011Z,15.43
2019-02-19T06:22:17.569Z,15.47
2019-02-19T06:23:41.223Z,15.00
2019-02-19T06:25:04.914Z,15.23
2019-02-19T06:26:28.386Z,15.00
2019-02-19T06:27:52.085Z,15.40
2019-02-19T06:29:15.532Z,15.27
2019-02-19T06:30:39.012Z,16.00
2019-02-19T06:32:02.437Z,15.73
2019-02-19T06:33:25.897Z,16.00
2019-02-19T06:34:49.441Z,16.20
2019-02-19T06:36:13.068Z,18.50
2019-02-19T06:37:50.726Z,16.30
2019-02-19T06:39:01.830Z,15.80
2019-02-19T06:40:26.185Z,15.50
2019-02-19T06:41:49.914Z,15.70
2019-02-19T06:44:43.992Z,15.30
2019-02-19T06:46:07.535Z,16.57
2019-02-19T06:47:30.954Z,15.57
2019-02-19T06:48:54.442Z,15.07
2019-02-19T06:50:17.878Z,15.23
2019-02-19T06:51:41.331Z,15.53
2019-02-19T06:53:04.901Z,15.33
2019-02-19T06:54:28.365Z,15.07
2019-02-19T06:55:51.866Z,16.60
2019-02-19T06:57:22.578Z,17.07
2019-02-19T06:58:46.139Z,16.07
2019-02-19T07:00:09.921Z,16.10
2019-02-19T07:01:52.297Z,16.13
2019-02-19T07:03:35.184Z,14.63
2019-02-19T07:06:44.338Z,15.13
2019-02-19T07:08:07.913Z,15.77
2019-02-19T07:09:31.437Z,15.20
2019-02-19T07:10:55.287Z,15.70
2019-02-19T07:12:18.732Z,16.40
2019-02-19T07:13:42.137Z,15.67
2019-02-19T07:15:06.166Z,15.17
2019-02-19T07:16:29.664Z,15.83
2019-02-19T07:17:53.105Z,15.90
2019-02-19T07:19:35.592Z,15.23
2019-02-19T07:20:51.606Z,16.27
2019-02-19T07:22:07.460Z,15.17
2019-02-19T07:23:23.280Z,14.37
2019-02-19T07:24:39.549Z,14.53
2019-02-19T07:25:55.911Z,14.47
2019-02-19T07:27:12.045Z,15.80
2019-02-19T07:28:27.865Z,14.30
2019-02-19T07:29:45.329Z,15.43
2019-02-19T07:31:01.051Z,15.60
2019-02-19T07:32:17.476Z,15.00
2019-02-19T07:33:33.772Z,14.93
2019-02-19T07:34:49.925Z,16.00
2019-02-19T07:36:06.175Z,16.13
2019-02-19T07:37:22.525Z,15.97
2019-02-19T07:38:38.349Z,15.37
2019-02-19T07:39:54.384Z,16.27
2019-02-19T07:41:12.941Z,15.20
2019-02-19T07:42:29.410Z,16.07
2019-02-19T07:43:45.481Z,15.30
2019-02-19T07:45:01.689Z,14.80
2019-02-19T07:46:17.509Z,14.77
2019-02-19T07:47:33.682Z,16.00
2019-02-19T07:48:49.820Z,15.40
2019-02-19T07:50:05.912Z,16.03
2019-02-19T07:51:21.964Z,16.43
2019-02-19T07:52:38.484Z,15.97
2019-02-19T07:53:54.620Z,14.67
2019-02-19T07:55:10.654Z,15.03
2019-02-19T07:56:26.832Z,15.77
2019-02-19T07:57:42.998Z,15.77
2019-02-19T07:58:58.934Z,15.63
2019-02-19T08:00:15.611Z,16.00
2019-02-19T08:01:20.115Z,15.90
2019-02-19T08:02:43.524Z,16.20
2019-02-19T08:04:06.986Z,15.90
2019-02-19T08:05:30.411Z,15.03
2019-02-19T08:06:53.970Z,15.97
2019-02-19T08:08:17.404Z,15.27
2019-02-19T08:09:40.899Z,15.67
2019-02-19T08:11:04.333Z,16.30
2019-02-19T08:12:27.786Z,14.97
2019-02-19T08:13:51.286Z,14.47
2019-02-19T08:15:14.857Z,15.27
2019-02-19T08:16:19.284Z,15.50
2019-02-19T08:17:43.589Z,15.67
2019-02-19T08:19:07.569Z,15.47
2019-02-19T08:20:24.120Z,14.73
2019-02-19T08:21:40.599Z,14.13
2019-02-19T08:22:56.752Z,12.70
2019-02-19T08:25:29.460Z,13.40
2019-02-19T08:26:45.769Z,14.63
2019-02-19T08:28:02.156Z,14.57
2019-02-19T08:29:18.353Z,13.20
2019-02-19T08:30:34.364Z,13.60
2019-02-19T08:31:50.650Z,13.87
2019-02-19T08:33:06.655Z,14.67
2019-02-19T08:34:23.392Z,14.17
2019-02-19T08:35:42.019Z,14.20
2019-02-19T08:36:58.645Z,12.77
2019-02-19T08:38:14.641Z,12.27
2019-02-19T08:39:30.787Z,12.23
2019-02-19T08:40:47.143Z,12.63
2019-02-19T08:42:03.605Z,13.73
2019-02-19T08:43:19.478Z,12.10
2019-02-19T08:44:35.956Z,12.10
2019-02-19T08:45:52.484Z,12.67
2019-02-19T08:47:08.344Z,11.40
2019-02-19T08:48:24.462Z,13.37
2019-02-19T08:49:40.819Z,11.03
2019-02-19T08:50:57.011Z,10.83
2019-02-19T08:52:13.721Z,11.97
2019-02-19T08:53:29.452Z,11.17
2019-02-19T08:54:45.362Z,11.60
2019-02-19T08:56:01.565Z,11.60
2019-02-19T08:57:19.658Z,11.10
2019-02-19T08:58:35.581Z,12.27
2019-02-19T08:59:51.650Z,14.43
2019-02-19T09:01:07.988Z,11.90
2019-02-19T09:02:23.716Z,12.73
2019-02-19T09:03:40.710Z,11.77
2019-02-19T09:04:57.131Z,11.63
2019-02-19T09:06:13.547Z,12.23
2019-02-19T09:07:30.072Z,12.23
2019-02-19T09:08:46.063Z,11.67
2019-02-19T09:10:02.348Z,12.27
2019-02-19T09:11:19.619Z,11.37
2019-02-19T09:12:36.041Z,11.30
2019-02-19T09:13:52.265Z,11.73
2019-02-19T09:15:08.640Z,11.00
2019-02-19T09:16:24.560Z,11.83
2019-02-19T09:17:40.568Z,11.17
2019-02-19T09:18:56.640Z,11.07
2019-02-19T09:20:12.626Z,10.93
2019-02-19T09:21:28.713Z,10.53
2019-02-19T09:22:44.865Z,11.28
2019-02-19T09:24:09.274Z,10.83
2019-02-19T09:25:19.723Z,11.22
2019-02-19T09:26:35.466Z,11.18
2019-02-19T09:27:51.801Z,11.65
2019-02-19T09:29:08.034Z,10.30
2019-02-19T09:30:24.067Z,10.87
2019-02-19T09:31:40.893Z,11.22
2019-02-19T09:32:57.056Z,10.65
2019-02-19T09:34:01.555Z,10.53
2019-02-19T09:35:25.037Z,12.13
2019-02-19T09:36:48.496Z,11.12
2019-02-19T09:38:14.268Z,11.33
2019-02-19T09:39:37.675Z,11.07
2019-02-19T09:41:01.100Z,10.85
2019-02-19T09:42:24.493Z,11.40
2019-02-19T09:43:35.332Z,10.03
2019-02-19T09:44:54.086Z,10.53
2019-02-19T09:46:17.615Z,11.20
2019-02-19T09:47:42.277Z,10.43
2019-02-19T09:49:05.780Z,11.80
2019-02-19T09:50:29.316Z,9.88
2019-02-19T09:51:52.771Z,10.58
2019-02-19T09:53:16.245Z,11.53
2019-02-19T09:54:39.748Z,9.83
2019-02-19T09:56:03.200Z,11.13
2019-02-19T09:57:26.728Z,10.28
2019-02-19T09:58:50.158Z,10.23
2019-02-19T10:00:13.809Z,10.00
2019-02-19T10:01:37.222Z,10.93
2019-02-19T10:03:00.688Z,10.68
2019-02-19T10:04:24.213Z,10.48
2019-02-19T10:05:48.203Z,10.55
2019-02-19T10:07:13.214Z,10.20
2019-02-19T10:08:36.676Z,9.50
2019-02-19T10:10:00.256Z,10.55
2019-02-19T10:11:23.837Z,9.15
2019-02-19T10:12:47.247Z,10.55
2019-02-19T10:14:03.744Z,10.15
2019-02-19T10:15:20.071Z,10.23
2019-02-19T10:16:41.726Z,10.70
2019-02-19T10:17:54.248Z,9.35
2019-02-19T10:19:10.305Z,9.10
2019-02-19T10:20:26.285Z,8.85
2019-02-19T10:21:42.116Z,7.83
2019-02-19T10:22:58.185Z,8.48
2019-02-19T10:24:14.161Z,8.73
2019-02-19T10:25:30.431Z,7.92
2019-02-19T10:26:46.451Z,7.47
2019-02-19T10:28:02.501Z,7.87
2019-02-19T10:29:18.849Z,8.28
2019-02-19T10:30:34.896Z,7.50
2019-02-19T10:31:50.882Z,8.77
2019-02-19T10:33:06.835Z,8.30
2019-02-19T10:34:22.977Z,8.80
2019-02-19T10:35:39.224Z,8.48
2019-02-19T10:36:55.072Z,7.53
2019-02-19T10:38:11.122Z,6.62
2019-02-19T10:39:26.933Z,7.37
2019-02-19T10:40:45.032Z,6.50
2019-02-19T10:42:01.164Z,7.47
2019-02-19T10:43:17.121Z,7.53
2019-02-19T10:44:32.913Z,8.03
2019-02-19T10:45:48.658Z,7.60
2019-02-19T10:47:04.625Z,7.67
2019-02-19T10:48:20.753Z,6.80
2019-02-19T10:49:37.050Z,6.63
2019-02-19T10:50:53.008Z,7.17
2019-02-19T10:52:08.808Z,6.78
2019-02-19T10:53:25.113Z,7.08
2019-02-19T10:54:41.031Z,6.92
2019-02-19T10:55:57.027Z,7.37
2019-02-19T10:57:13.395Z,7.43
2019-02-19T10:58:29.162Z,6.60
2019-02-19T10:59:45.204Z,6.57
2019-02-19T11:01:01.169Z,6.28
2019-02-19T11:02:16.993Z,6.03
2019-02-19T11:03:21.775Z,6.20
2019-02-19T11:04:45.308Z,7.27
2019-02-19T11:06:08.874Z,6.30
2019-02-19T11:09:14.883Z,7.22
2019-02-19T11:10:38.392Z,6.22
2019-02-19T11:12:02.074Z,5.40
2019-02-19T11:13:25.789Z,6.27
2019-02-19T11:14:49.477Z,6.15
2019-02-19T11:16:13.144Z,6.17
2019-02-19T11:17:36.915Z,6.72
2019-02-19T11:19:00.358Z,5.47
2019-02-19T11:20:16.389Z,6.35
2019-02-19T11:21:32.673Z,6.17
2019-02-19T11:22:48.706Z,6.28
2019-02-19T11:24:05.042Z,6.05
2019-02-19T11:25:21.004Z,5.30
2019-02-19T11:26:36.933Z,5.60
2019-02-19T11:27:53.242Z,6.30
2019-02-19T11:29:09.435Z,5.03
2019-02-19T11:30:25.456Z,5.60
2019-02-19T11:31:41.465Z,5.90
2019-02-19T11:32:57.358Z,5.97
2019-02-19T11:34:13.854Z,4.97
2019-02-19T11:35:29.868Z,5.42
2019-02-19T11:36:57.624Z,5.83
2019-02-19T11:38:04.340Z,5.53
2019-02-19T11:39:22.524Z,5.58
2019-02-19T11:40:38.483Z,5.20
2019-02-19T11:41:54.331Z,6.00
2019-02-19T11:43:10.210Z,5.93
2019-02-19T11:44:26.447Z,6.33
2019-02-19T11:45:42.326Z,5.42
2019-02-19T11:46:58.437Z,5.37
2019-02-19T11:48:14.546Z,4.75
2019-02-19T11:49:30.416Z,5.83
2019-02-19T11:50:46.464Z,5.75
2019-02-19T11:52:05.711Z,5.62
2019-02-19T11:53:24.589Z,6.50
2019-02-19T11:54:41.405Z,4.90
2019-02-19T11:55:57.124Z,5.37
2019-02-19T11:57:13.121Z,5.50
2019-02-19T11:58:29.281Z,6.17
2019-02-19T11:59:45.175Z,5.37
2019-02-19T12:01:01.371Z,4.80
2019-02-19T12:02:17.527Z,4.75
2019-02-19T12:03:34.000Z,4.65
2019-02-19T12:04:50.241Z,5.07
2019-02-19T12:06:07.703Z,4.45
2019-02-19T12:07:23.523Z,4.45
2019-02-19T12:08:39.524Z,5.08
2019-02-19T12:09:55.508Z,6.08
2019-02-19T12:11:11.400Z,4.80
2019-02-19T12:12:27.375Z,4.83
2019-02-19T12:13:43.360Z,4.70
2019-02-19T12:14:59.274Z,5.17
2019-02-19T12:16:15.069Z,5.25
2019-02-19T12:17:30.930Z,4.60
2019-02-19T12:18:46.813Z,5.05
2019-02-19T12:20:02.753Z,5.05
2019-02-19T12:21:18.702Z,4.97
2019-02-19T12:22:34.593Z,5.12
2019-02-19T12:23:50.517Z,5.25
2019-02-19T12:25:06.415Z,5.27
2019-02-19T12:26:22.247Z,5.00
2019-02-19T12:27:38.378Z,4.70
2019-02-19T12:28:54.410Z,5.55
2019-02-19T12:30:10.731Z,5.40
2019-02-19T12:31:26.583Z,5.00
2019-02-19T12:32:42.690Z,4.95
2019-02-19T12:33:58.676Z,5.25
2019-02-19T12:35:14.758Z,6.08
2019-02-19T12:36:31.086Z,5.65
2019-02-19T12:37:45.689Z,5.22
2019-02-19T12:39:09.222Z,5.75
2019-02-19T12:42:15.200Z,5.30
2019-02-19T12:48:24.075Z,5.00
2019-02-19T12:52:45.776Z,4.80
2019-02-19T12:54:09.154Z,5.40
2019-02-19T12:57:02.024Z,5.10
2019-02-19T12:58:25.532Z,4.90
2019-02-19T12:59:56.399Z,5.33
2019-02-19T13:01:16.010Z,5.42
2019-02-19T13:02:41.390Z,4.90
2019-02-19T13:06:58.925Z,5.62
2019-02-19T13:08:22.440Z,5.90
2019-02-19T13:09:46.315Z,5.72
2019-02-19T13:12:38.471Z,5.42
2019-02-19T13:14:01.896Z,5.40
2019-02-19T13:15:25.405Z,5.62
2019-02-19T13:18:10.317Z,6.00
2019-02-19T13:19:26.397Z,6.00
2019-02-19T13:20:42.476Z,5.30
2019-02-19T13:21:58.818Z,5.55
2019-02-19T13:23:14.699Z,5.70
2019-02-19T13:24:31.301Z,5.58
2019-02-19T13:25:47.745Z,5.12
2019-02-19T13:27:04.340Z,5.72
2019-02-19T13:28:20.236Z,5.70
2019-02-19T13:29:35.962Z,5.70
2019-02-19T13:30:52.020Z,6.55
2019-02-19T13:32:08.277Z,5.60
2019-02-19T13:33:24.032Z,5.55
2019-02-19T13:34:39.877Z,6.47
2019-02-19T13:35:56.231Z,6.03
2019-02-19T13:37:12.174Z,5.17
2019-02-19T13:38:28.168Z,5.58
2019-02-19T13:39:44.369Z,5.25
2019-02-19T13:41:00.273Z,5.78
2019-02-19T13:42:16.370Z,5.33
2019-02-19T13:43:32.368Z,5.53
2019-02-19T13:44:48.475Z,5.78
2019-02-19T13:46:04.306Z,5.03
2019-02-19T13:47:20.592Z,5.10
2019-02-19T13:48:36.586Z,4.92
2019-02-19T13:49:52.466Z,5.67
2019-02-19T13:51:08.417Z,5.53
2019-02-19T13:53:59.320Z,4.60
2019-02-19T13:55:23.965Z,5.10
2019-02-19T13:56:39.798Z,4.83
2019-02-19T13:57:57.361Z,5.35
2019-02-19T13:59:13.613Z,5.03
2019-02-19T14:00:30.829Z,5.00
2019-02-19T14:01:46.499Z,5.20
2019-02-19T14:03:02.429Z,5.53
2019-02-19T14:04:18.413Z,5.20
2019-02-19T14:05:34.742Z,4.85
2019-02-19T14:06:50.831Z,5.28
2019-02-19T14:08:14.192Z,4.65
2019-02-19T14:09:25.089Z,5.05
2019-02-19T14:10:40.874Z,5.30
2019-02-19T14:11:56.975Z,5.47
2019-02-19T14:13:13.300Z,5.03
2019-02-19T14:16:29.747Z,5.45
2019-02-19T14:17:45.557Z,6.08
2019-02-19T14:19:21.152Z,5.13
2019-02-19T14:20:52.340Z,4.80
2019-02-19T14:22:04.747Z,5.60
2019-02-19T14:23:47.371Z,4.83
2019-02-19T14:25:29.690Z,4.93
2019-02-19T14:27:12.340Z,5.15
2019-02-19T14:28:54.859Z,4.50
2019-02-19T14:30:37.189Z,4.85
2019-02-19T14:32:19.621Z,5.10
2019-02-19T14:34:02.515Z,5.85
2019-02-19T14:35:45.004Z,5.47
2019-02-19T14:39:23.294Z,5.22
2019-02-19T14:41:05.646Z,5.08
2019-02-19T14:42:48.021Z,5.05
2019-02-19T14:44:18.910Z,5.72
2019-02-19T14:46:01.216Z,4.92
2019-02-19T14:47:43.532Z,5.22
2019-02-19T14:49:36.600Z,4.00
2019-02-19T14:51:09.881Z,5.72
2019-02-19T14:52:52.242Z,4.78
2019-02-19T14:54:34.649Z,4.83
2019-02-19T14:56:16.973Z,4.45
2019-02-19T14:57:59.301Z,5.10
2019-02-19T14:59:41.883Z,6.10
2019-02-19T15:03:18.466Z,5.27
2019-02-19T15:05:00.917Z,4.80
2019-02-19T15:06:43.236Z,5.43
2019-02-19T15:08:25.719Z,4.95
2019-02-19T15:10:08.128Z,5.00
2019-02-19T15:11:50.520Z,5.05
2019-02-19T15:13:26.166Z,4.40
2019-02-19T15:14:49.785Z,4.90
2019-02-19T15:16:27.391Z,4.47
2019-02-19T15:18:02.268Z,5.62
2019-02-19T15:19:25.616Z,4.80
2019-02-19T15:20:53.197Z,4.33
2019-02-19T15:22:33.548Z,4.70
2019-02-19T15:24:08.145Z,4.17
2019-02-19T15:27:23.586Z,4.42
2019-02-19T15:28:57.997Z,4.42
2019-02-19T15:30:32.618Z,4.17
2019-02-19T15:32:07.748Z,4.17
2019-02-19T15:33:42.583Z,4.10
2019-02-19T15:35:17.576Z,3.72
2019-02-19T15:36:52.621Z,4.73
2019-02-19T15:38:30.249Z,4.20
2019-02-19T15:40:11.140Z,3.87
2019-02-19T15:41:46.359Z,3.63
2019-02-19T15:43:10.323Z,4.45
2019-02-19T15:44:44.865Z,3.70
2019-02-19T15:46:19.879Z,4.15
2019-02-19T15:47:54.543Z,4.20
2019-02-19T15:53:08.815Z,3.87
2019-02-19T15:54:43.710Z,4.00
2019-02-19T15:56:21.994Z,3.57
2019-02-19T15:58:04.533Z,4.20
2019-02-19T15:59:22.633Z,3.90
2019-02-19T16:00:46.235Z,3.30
2019-02-19T16:03:35.793Z,3.55
2019-02-19T16:05:10.367Z,3.92
2019-02-19T16:06:34.347Z,3.70
2019-02-19T16:08:12.570Z,4.07
2019-02-19T16:11:30.268Z,3.70
2019-02-19T16:12:53.010Z,3.00
2019-02-19T16:14:33.824Z,4.23
2019-02-19T16:16:08.367Z,3.53
2019-02-19T16:17:43.370Z,3.20
2019-02-19T16:19:21.469Z,3.53
2019-02-19T16:20:44.326Z,3.73
2019-02-19T16:22:19.361Z,5.40
2019-02-19T16:24:00.408Z,3.80
2019-02-19T16:25:35.332Z,3.80
2019-02-19T16:27:15.908Z,3.43
2019-02-19T16:28:42.784Z,2.97
2019-02-19T16:30:17.718Z,3.50
2019-02-19T16:31:58.536Z,4.33
2019-02-19T16:33:33.810Z,3.40
2019-02-19T16:35:08.931Z,3.10
2019-02-19T16:36:40.242Z,3.80
2019-02-19T16:38:08.701Z,2.90
2019-02-19T16:39:43.469Z,3.17
2019-02-19T16:41:19.015Z,2.93
2019-02-19T16:42:43.749Z,3.30
2019-02-19T16:44:04.591Z,3.10
2019-02-19T16:45:29.630Z,3.87
2019-02-19T16:46:53.755Z,4.10
2019-02-19T16:48:28.908Z,3.30
2019-02-19T16:50:07.219Z,2.90
2019-02-19T16:51:24.923Z,4.20
2019-02-19T16:52:48.965Z,3.47
2019-02-19T16:54:23.755Z,3.17
2019-02-19T16:55:47.798Z,3.57
2019-02-19T16:57:22.754Z,3.00
2019-02-19T16:59:05.482Z,3.03
2019-02-19T17:00:29.446Z,3.63
2019-02-19T17:01:55.364Z,3.40
2019-02-19T17:03:30.158Z,3.33
2019-02-19T17:04:59.758Z,3.40
2019-02-19T17:06:21.804Z,3.50
2019-02-19T17:09:43.028Z,3.80
2019-02-19T17:11:18.073Z,3.20
2019-02-19T17:12:53.385Z,3.87
2019-02-19T17:14:18.681Z,3.93
2019-02-19T17:19:02.691Z,4.30
2019-02-19T17:20:43.667Z,3.43
2019-02-19T17:22:18.370Z,3.20
2019-02-19T17:23:53.538Z,3.93
2019-02-19T17:25:28.404Z,4.03
2019-02-19T17:27:03.304Z,4.27
2019-02-19T17:28:33.328Z,3.77
2019-02-19T17:30:08.764Z,3.53
2019-02-19T17:31:46.581Z,3.77
2019-02-19T17:33:21.530Z,4.10
2019-02-19T17:34:56.518Z,4.30
2019-02-19T17:36:15.636Z,3.77
2019-02-19T17:37:50.196Z,3.50
2019-02-19T17:39:28.081Z,3.60
2019-02-19T17:40:53.541Z,3.00
2019-02-19T17:44:26.712Z,2.90
2019-02-19T17:46:01.593Z,3.03
2019-02-19T17:47:25.345Z,2.60
2019-02-19T17:48:58.006Z,3.17
2019-02-19T17:50:38.230Z,3.30
2019-02-19T17:51:54.419Z,2.97
2019-02-19T17:53:25.993Z,3.20
2019-02-19T17:54:58.727Z,2.80
2019-02-19T17:56:25.133Z,2.43
2019-02-19T17:57:42.150Z,2.10
2019-02-19T17:59:11.750Z,2.10
2019-02-19T18:00:23.883Z,2.40
2019-02-19T18:01:39.325Z,2.60
2019-02-19T18:03:01.314Z,2.40
2019-02-19T18:04:17.240Z,1.80
2019-02-19T18:05:58.715Z,2.07
2019-02-19T18:07:14.817Z,2.17
2019-02-19T18:08:38.251Z,1.97
2019-02-19T18:09:54.066Z,1.70
2019-02-19T18:11:16.485Z,1.77
2019-02-19T18:12:46.028Z,1.60
2019-02-19T18:14:01.503Z,2.07
2019-02-19T18:15:25.015Z,2.17
2019-02-19T18:16:41.929Z,2.03
2019-02-19T18:18:05.637Z,2.07
2019-02-19T18:19:10.017Z,1.73
2019-02-19T18:20:14.633Z,1.87
2019-02-19T18:21:19.905Z,2.10
2019-02-19T18:22:24.310Z,2.37
2019-02-19T18:23:28.755Z,2.20
2019-02-19T18:24:33.213Z,1.63
2019-02-19T18:25:37.586Z,1.87
2019-02-19T18:26:42.212Z,2.00
2019-02-19T18:27:46.800Z,2.57
2019-02-19T18:28:51.201Z,2.17
2019-02-19T18:29:55.613Z,2.13
2019-02-19T18:31:00.203Z,2.83
2019-02-19T18:32:04.673Z,2.63
2019-02-19T18:33:09.223Z,3.97
2019-02-19T18:34:13.609Z,1.93
2019-02-19T18:35:17.995Z,2.20
2019-02-19T18:36:22.476Z,2.53
2019-02-19T18:37:26.999Z,2.67
2019-02-19T18:38:31.743Z,3.37
2019-02-19T18:39:36.415Z,2.67
2019-02-19T18:40:41.917Z,2.83
2019-02-19T18:41:46.526Z,2.40
2019-02-19T18:42:50.967Z,2.50
2019-02-19T18:43:55.478Z,3.00
2019-02-19T18:44:59.871Z,3.03
2019-02-19T18:46:04.360Z,3.40
2019-02-19T18:47:08.843Z,3.40
2019-02-19T18:48:13.419Z,3.17
2019-02-19T18:49:17.954Z,3.37
2019-02-19T18:50:22.361Z,2.97
2019-02-19T18:51:26.884Z,3.07
2019-02-19T18:52:31.334Z,2.73
2019-02-19T18:53:35.805Z,2.77
2019-02-19T18:54:40.189Z,2.90
2019-02-19T18:55:44.919Z,2.80
2019-02-19T18:56:49.426Z,2.87
2019-02-19T18:57:53.882Z,2.93
2019-02-19T18:58:58.367Z,3.10
2019-02-19T19:00:02.788Z,3.17
2019-02-19T19:01:08.681Z,2.50
2019-02-19T19:02:13.448Z,3.47
2019-02-19T19:03:18.010Z,3.10
2019-02-19T19:04:22.789Z,2.90
2019-02-19T19:05:27.256Z,3.47
2019-02-19T19:06:31.721Z,3.67
2019-02-19T19:07:36.200Z,3.20